sensor_id;sensor_type;location;lat;lon;timestamp;P1;durP1;ratioP1;P2;durP2;ratioP2
56718;SDS011;42597;40.636;0.278;2023-06-14T00:00:47;3.17;;;1.92;;
56718;SDS011;42597;40.636;0.278;2023-06-14T00:03:13;2.10;;;1.20;;
56718;SDS011;42597;40.636;0.278;2023-06-14T00:08:09;5.38;;;2.35;;
56718;SDS011;42597;40.636;0.278;2023-06-14T00:10:35;4.20;;;1.75;;
56718;SDS011;42597;40.636;0.278;2023-06-14T00:13:01;4.28;;;1.88;;
56718;SDS011;42597;40.636;0.278;2023-06-14T00:15:28;5.45;;;2.42;;
56718;SDS011;42597;40.636;0.278;2023-06-14T00:17:53;3.17;;;1.17;;
56718;SDS011;42597;40.636;0.278;2023-06-14T00:20:20;3.90;;;2.05;;
56718;SDS011;42597;40.636;0.278;2023-06-14T00:22:46;2.72;;;1.65;;
56718;SDS011;42597;40.636;0.278;2023-06-14T00:25:13;3.65;;;2.25;;
56718;SDS011;42597;40.636;0.278;2023-06-14T00:27:38;3.92;;;2.03;;
56718;SDS011;42597;40.636;0.278;2023-06-14T00:30:04;4.43;;;2.58;;
56718;SDS011;42597;40.636;0.278;2023-06-14T00:32:30;2.42;;;1.50;;
56718;SDS011;42597;40.636;0.278;2023-06-14T00:34:55;4.90;;;2.47;;
56718;SDS011;42597;40.636;0.278;2023-06-14T00:37:21;6.07;;;2.35;;
56718;SDS011;42597;40.636;0.278;2023-06-14T00:39:47;2.92;;;1.73;;
56718;SDS011;42597;40.636;0.278;2023-06-14T00:42:22;2.88;;;1.92;;
56718;SDS011;42597;40.636;0.278;2023-06-14T00:44:49;4.35;;;2.30;;
56718;SDS011;42597;40.636;0.278;2023-06-14T00:47:14;3.13;;;1.58;;
56718;SDS011;42597;40.636;0.278;2023-06-14T00:49:40;3.35;;;1.73;;
56718;SDS011;42597;40.636;0.278;2023-06-14T00:52:06;2.72;;;1.65;;
56718;SDS011;42597;40.636;0.278;2023-06-14T00:54:32;3.25;;;1.73;;
56718;SDS011;42597;40.636;0.278;2023-06-14T00:56:58;3.40;;;1.58;;
56718;SDS011;42597;40.636;0.278;2023-06-14T00:59:23;4.50;;;2.10;;
56718;SDS011;42597;40.636;0.278;2023-06-14T01:01:49;3.50;;;1.42;;
56718;SDS011;42597;40.636;0.278;2023-06-14T01:04:15;5.70;;;1.55;;
56718;SDS011;42597;40.636;0.278;2023-06-14T01:06:43;2.55;;;1.45;;
56718;SDS011;42597;40.636;0.278;2023-06-14T01:12:29;3.88;;;1.95;;
56718;SDS011;42597;40.636;0.278;2023-06-14T01:15:02;2.67;;;1.83;;
56718;SDS011;42597;40.636;0.278;2023-06-14T01:17:28;2.95;;;1.73;;
56718;SDS011;42597;40.636;0.278;2023-06-14T01:19:57;4.50;;;1.98;;
56718;SDS011;42597;40.636;0.278;2023-06-14T01:22:27;2.78;;;1.58;;
56718;SDS011;42597;40.636;0.278;2023-06-14T01:24:53;2.28;;;1.35;;
56718;SDS011;42597;40.636;0.278;2023-06-14T01:27:29;2.78;;;1.42;;
56718;SDS011;42597;40.636;0.278;2023-06-14T01:29:55;3.30;;;1.67;;
56718;SDS011;42597;40.636;0.278;2023-06-14T01:32:23;3.78;;;2.05;;
56718;SDS011;42597;40.636;0.278;2023-06-14T01:34:51;6.90;;;2.38;;
56718;SDS011;42597;40.636;0.278;2023-06-14T01:37:17;4.32;;;2.35;;
56718;SDS011;42597;40.636;0.278;2023-06-14T01:39:44;5.10;;;2.60;;
56718;SDS011;42597;40.636;0.278;2023-06-14T01:42:10;4.80;;;2.05;;
56718;SDS011;42597;40.636;0.278;2023-06-14T01:44:38;3.72;;;2.13;;
56718;SDS011;42597;40.636;0.278;2023-06-14T01:47:05;4.47;;;2.00;;
56718;SDS011;42597;40.636;0.278;2023-06-14T01:49:33;3.42;;;2.00;;
56718;SDS011;42597;40.636;0.278;2023-06-14T01:52:00;3.83;;;1.80;;
56718;SDS011;42597;40.636;0.278;2023-06-14T01:54:25;3.67;;;2.40;;
56718;SDS011;42597;40.636;0.278;2023-06-14T01:56:52;2.97;;;1.83;;
56718;SDS011;42597;40.636;0.278;2023-06-14T01:59:18;3.10;;;1.60;;
56718;SDS011;42597;40.636;0.278;2023-06-14T02:01:44;3.58;;;2.17;;
56718;SDS011;42597;40.636;0.278;2023-06-14T02:04:11;2.60;;;1.52;;
56718;SDS011;42597;40.636;0.278;2023-06-14T02:06:37;2.95;;;1.70;;
56718;SDS011;42597;40.636;0.278;2023-06-14T02:09:02;5.57;;;2.58;;
56718;SDS011;42597;40.636;0.278;2023-06-14T02:11:28;3.72;;;2.22;;
56718;SDS011;42597;40.636;0.278;2023-06-14T02:13:54;4.38;;;2.03;;
56718;SDS011;42597;40.636;0.278;2023-06-14T02:16:20;6.50;;;2.38;;
56718;SDS011;42597;40.636;0.278;2023-06-14T02:18:47;5.05;;;2.75;;
56718;SDS011;42597;40.636;0.278;2023-06-14T02:21:13;4.25;;;2.20;;
56718;SDS011;42597;40.636;0.278;2023-06-14T02:23:39;3.78;;;2.03;;
56718;SDS011;42597;40.636;0.278;2023-06-14T02:26:05;3.58;;;2.05;;
56718;SDS011;42597;40.636;0.278;2023-06-14T02:28:31;4.10;;;2.03;;
56718;SDS011;42597;40.636;0.278;2023-06-14T02:30:56;4.15;;;2.30;;
56718;SDS011;42597;40.636;0.278;2023-06-14T02:33:22;5.85;;;1.95;;
56718;SDS011;42597;40.636;0.278;2023-06-14T02:35:47;3.65;;;2.47;;
56718;SDS011;42597;40.636;0.278;2023-06-14T02:38:13;4.15;;;2.17;;
56718;SDS011;42597;40.636;0.278;2023-06-14T02:40:39;7.15;;;1.98;;
56718;SDS011;42597;40.636;0.278;2023-06-14T02:43:07;8.20;;;2.10;;
56718;SDS011;42597;40.636;0.278;2023-06-14T02:45:32;5.20;;;2.10;;
56718;SDS011;42597;40.636;0.278;2023-06-14T02:47:58;4.50;;;2.10;;
56718;SDS011;42597;40.636;0.278;2023-06-14T02:50:23;4.45;;;2.55;;
56718;SDS011;42597;40.636;0.278;2023-06-14T02:52:49;4.68;;;2.50;;
56718;SDS011;42597;40.636;0.278;2023-06-14T02:55:15;3.03;;;1.88;;
56718;SDS011;42597;40.636;0.278;2023-06-14T02:57:40;4.72;;;3.25;;
56718;SDS011;42597;40.636;0.278;2023-06-14T03:00:06;4.70;;;2.30;;
56718;SDS011;42597;40.636;0.278;2023-06-14T03:02:35;6.72;;;2.90;;
56718;SDS011;42597;40.636;0.278;2023-06-14T03:05:00;4.63;;;2.60;;
56718;SDS011;42597;40.636;0.278;2023-06-14T03:07:28;3.50;;;1.80;;
56718;SDS011;42597;40.636;0.278;2023-06-14T03:09:54;5.13;;;2.70;;
56718;SDS011;42597;40.636;0.278;2023-06-14T03:12:20;5.85;;;2.40;;
56718;SDS011;42597;40.636;0.278;2023-06-14T03:14:46;4.55;;;2.28;;
56718;SDS011;42597;40.636;0.278;2023-06-14T03:17:11;4.38;;;2.25;;
56718;SDS011;42597;40.636;0.278;2023-06-14T03:19:37;5.53;;;3.15;;
56718;SDS011;42597;40.636;0.278;2023-06-14T03:22:03;3.55;;;1.95;;
56718;SDS011;42597;40.636;0.278;2023-06-14T03:24:28;4.72;;;2.30;;
56718;SDS011;42597;40.636;0.278;2023-06-14T03:26:54;4.28;;;2.53;;
56718;SDS011;42597;40.636;0.278;2023-06-14T03:29:20;3.20;;;1.98;;
56718;SDS011;42597;40.636;0.278;2023-06-14T03:32:02;4.95;;;2.50;;
56718;SDS011;42597;40.636;0.278;2023-06-14T03:34:28;4.28;;;2.50;;
56718;SDS011;42597;40.636;0.278;2023-06-14T03:36:54;4.32;;;2.13;;
56718;SDS011;42597;40.636;0.278;2023-06-14T03:39:20;5.38;;;2.22;;
56718;SDS011;42597;40.636;0.278;2023-06-14T03:41:46;4.03;;;2.33;;
56718;SDS011;42597;40.636;0.278;2023-06-14T03:44:11;4.03;;;2.30;;
56718;SDS011;42597;40.636;0.278;2023-06-14T03:46:39;3.70;;;2.27;;
56718;SDS011;42597;40.636;0.278;2023-06-14T03:49:05;2.97;;;1.73;;
56718;SDS011;42597;40.636;0.278;2023-06-14T03:51:30;5.80;;;2.72;;
56718;SDS011;42597;40.636;0.278;2023-06-14T03:53:56;4.63;;;2.63;;
56718;SDS011;42597;40.636;0.278;2023-06-14T03:56:21;5.22;;;3.05;;
56718;SDS011;42597;40.636;0.278;2023-06-14T03:58:47;8.13;;;2.63;;
56718;SDS011;42597;40.636;0.278;2023-06-14T04:01:13;3.90;;;2.13;;
56718;SDS011;42597;40.636;0.278;2023-06-14T04:03:39;3.92;;;2.47;;
56718;SDS011;42597;40.636;0.278;2023-06-14T04:06:05;4.03;;;2.42;;
56718;SDS011;42597;40.636;0.278;2023-06-14T04:08:31;3.85;;;2.45;;
56718;SDS011;42597;40.636;0.278;2023-06-14T04:10:57;3.53;;;2.17;;
56718;SDS011;42597;40.636;0.278;2023-06-14T04:13:22;4.18;;;2.10;;
56718;SDS011;42597;40.636;0.278;2023-06-14T04:15:48;4.10;;;2.20;;
56718;SDS011;42597;40.636;0.278;2023-06-14T04:18:14;3.90;;;2.20;;
56718;SDS011;42597;40.636;0.278;2023-06-14T04:20:39;5.43;;;2.92;;
56718;SDS011;42597;40.636;0.278;2023-06-14T04:23:12;4.88;;;2.83;;
56718;SDS011;42597;40.636;0.278;2023-06-14T04:25:39;4.80;;;3.20;;
56718;SDS011;42597;40.636;0.278;2023-06-14T04:28:05;3.78;;;2.35;;
56718;SDS011;42597;40.636;0.278;2023-06-14T04:30:34;4.57;;;2.08;;
56718;SDS011;42597;40.636;0.278;2023-06-14T04:33:01;3.08;;;1.73;;
56718;SDS011;42597;40.636;0.278;2023-06-14T04:35:31;3.90;;;2.33;;
56718;SDS011;42597;40.636;0.278;2023-06-14T04:38:01;4.18;;;2.40;;
56718;SDS011;42597;40.636;0.278;2023-06-14T04:42:55;4.22;;;2.30;;
56718;SDS011;42597;40.636;0.278;2023-06-14T04:45:20;3.08;;;1.75;;
56718;SDS011;42597;40.636;0.278;2023-06-14T04:47:47;4.75;;;2.50;;
56718;SDS011;42597;40.636;0.278;2023-06-14T04:50:12;3.83;;;1.70;;
56718;SDS011;42597;40.636;0.278;2023-06-14T04:52:38;3.58;;;2.35;;
56718;SDS011;42597;40.636;0.278;2023-06-14T04:55:03;3.53;;;2.05;;
56718;SDS011;42597;40.636;0.278;2023-06-14T04:57:30;2.83;;;1.85;;
56718;SDS011;42597;40.636;0.278;2023-06-14T04:59:56;4.22;;;1.90;;
56718;SDS011;42597;40.636;0.278;2023-06-14T05:02:22;5.22;;;3.10;;
56718;SDS011;42597;40.636;0.278;2023-06-14T05:04:49;5.68;;;2.25;;
56718;SDS011;42597;40.636;0.278;2023-06-14T05:07:15;5.43;;;2.38;;
56718;SDS011;42597;40.636;0.278;2023-06-14T05:09:41;3.83;;;1.90;;
56718;SDS011;42597;40.636;0.278;2023-06-14T05:12:06;5.97;;;2.58;;
56718;SDS011;42597;40.636;0.278;2023-06-14T05:14:33;4.93;;;2.30;;
56718;SDS011;42597;40.636;0.278;2023-06-14T05:16:59;3.53;;;1.85;;
56718;SDS011;42597;40.636;0.278;2023-06-14T05:19:24;4.07;;;2.08;;
56718;SDS011;42597;40.636;0.278;2023-06-14T05:21:50;4.25;;;2.33;;
56718;SDS011;42597;40.636;0.278;2023-06-14T05:24:16;3.88;;;2.08;;
56718;SDS011;42597;40.636;0.278;2023-06-14T05:26:45;3.60;;;2.03;;
56718;SDS011;42597;40.636;0.278;2023-06-14T05:29:11;6.38;;;2.38;;
56718;SDS011;42597;40.636;0.278;2023-06-14T05:31:37;3.65;;;2.08;;
56718;SDS011;42597;40.636;0.278;2023-06-14T05:34:03;5.22;;;2.55;;
56718;SDS011;42597;40.636;0.278;2023-06-14T05:36:28;3.22;;;1.73;;
56718;SDS011;42597;40.636;0.278;2023-06-14T05:38:54;3.15;;;2.00;;
56718;SDS011;42597;40.636;0.278;2023-06-14T05:41:25;3.20;;;1.83;;
56718;SDS011;42597;40.636;0.278;2023-06-14T05:43:52;3.55;;;2.10;;
56718;SDS011;42597;40.636;0.278;2023-06-14T05:46:18;4.55;;;2.17;;
56718;SDS011;42597;40.636;0.278;2023-06-14T05:48:49;4.68;;;2.70;;
56718;SDS011;42597;40.636;0.278;2023-06-14T05:51:15;3.38;;;2.08;;
56718;SDS011;42597;40.636;0.278;2023-06-14T05:53:44;4.15;;;2.13;;
56718;SDS011;42597;40.636;0.278;2023-06-14T05:56:10;3.97;;;2.13;;
56718;SDS011;42597;40.636;0.278;2023-06-14T05:58:36;4.20;;;2.47;;
56718;SDS011;42597;40.636;0.278;2023-06-14T06:01:01;5.20;;;2.55;;
56718;SDS011;42597;40.636;0.278;2023-06-14T06:03:27;3.33;;;1.83;;
56718;SDS011;42597;40.636;0.278;2023-06-14T06:05:54;3.58;;;1.95;;
56718;SDS011;42597;40.636;0.278;2023-06-14T06:08:20;3.97;;;2.00;;
56718;SDS011;42597;40.636;0.278;2023-06-14T06:10:45;4.45;;;2.50;;
56718;SDS011;42597;40.636;0.278;2023-06-14T06:13:11;3.95;;;2.15;;
56718;SDS011;42597;40.636;0.278;2023-06-14T06:15:37;4.47;;;2.35;;
56718;SDS011;42597;40.636;0.278;2023-06-14T06:18:02;3.22;;;1.77;;
56718;SDS011;42597;40.636;0.278;2023-06-14T06:20:28;5.15;;;2.13;;
56718;SDS011;42597;40.636;0.278;2023-06-14T06:22:57;4.07;;;1.80;;
56718;SDS011;42597;40.636;0.278;2023-06-14T06:25:23;5.55;;;2.05;;
56718;SDS011;42597;40.636;0.278;2023-06-14T06:27:51;4.13;;;2.10;;
56718;SDS011;42597;40.636;0.278;2023-06-14T06:30:21;3.72;;;1.77;;
56718;SDS011;42597;40.636;0.278;2023-06-14T06:32:46;4.13;;;2.10;;
56718;SDS011;42597;40.636;0.278;2023-06-14T06:35:12;4.00;;;1.90;;
56718;SDS011;42597;40.636;0.278;2023-06-14T06:37:38;3.80;;;2.03;;
56718;SDS011;42597;40.636;0.278;2023-06-14T06:40:04;4.57;;;2.47;;
56718;SDS011;42597;40.636;0.278;2023-06-14T06:42:31;3.05;;;1.65;;
56718;SDS011;42597;40.636;0.278;2023-06-14T06:44:57;3.33;;;1.90;;
56718;SDS011;42597;40.636;0.278;2023-06-14T06:47:22;2.97;;;1.95;;
56718;SDS011;42597;40.636;0.278;2023-06-14T06:49:48;2.90;;;1.90;;
56718;SDS011;42597;40.636;0.278;2023-06-14T06:52:14;3.53;;;2.05;;
56718;SDS011;42597;40.636;0.278;2023-06-14T06:54:40;5.78;;;1.92;;
56718;SDS011;42597;40.636;0.278;2023-06-14T06:57:05;2.53;;;1.40;;
56718;SDS011;42597;40.636;0.278;2023-06-14T06:59:31;3.80;;;1.92;;
56718;SDS011;42597;40.636;0.278;2023-06-14T07:01:58;4.10;;;2.05;;
56718;SDS011;42597;40.636;0.278;2023-06-14T07:04:23;3.55;;;2.20;;
56718;SDS011;42597;40.636;0.278;2023-06-14T07:06:49;2.25;;;1.50;;
56718;SDS011;42597;40.636;0.278;2023-06-14T07:09:14;5.28;;;1.90;;
56718;SDS011;42597;40.636;0.278;2023-06-14T07:11:41;3.05;;;1.58;;
56718;SDS011;42597;40.636;0.278;2023-06-14T07:16:35;3.70;;;1.67;;
56718;SDS011;42597;40.636;0.278;2023-06-14T07:19:03;4.07;;;2.00;;
56718;SDS011;42597;40.636;0.278;2023-06-14T07:23:55;2.78;;;1.48;;
56718;SDS011;42597;40.636;0.278;2023-06-14T07:26:21;2.95;;;1.80;;
56718;SDS011;42597;40.636;0.278;2023-06-14T07:28:47;4.15;;;1.88;;
56718;SDS011;42597;40.636;0.278;2023-06-14T07:31:14;4.22;;;1.95;;
56718;SDS011;42597;40.636;0.278;2023-06-14T07:33:40;3.22;;;1.63;;
56718;SDS011;42597;40.636;0.278;2023-06-14T07:36:06;4.28;;;1.92;;
56718;SDS011;42597;40.636;0.278;2023-06-14T07:38:32;3.72;;;1.83;;
56718;SDS011;42597;40.636;0.278;2023-06-14T07:40:57;4.05;;;2.17;;
56718;SDS011;42597;40.636;0.278;2023-06-14T07:43:23;4.50;;;1.52;;
56718;SDS011;42597;40.636;0.278;2023-06-14T07:45:49;3.47;;;1.75;;
56718;SDS011;42597;40.636;0.278;2023-06-14T07:48:14;3.35;;;1.75;;
56718;SDS011;42597;40.636;0.278;2023-06-14T07:50:40;2.50;;;1.45;;
56718;SDS011;42597;40.636;0.278;2023-06-14T07:53:06;2.83;;;1.70;;
56718;SDS011;42597;40.636;0.278;2023-06-14T07:55:31;3.33;;;1.67;;
56718;SDS011;42597;40.636;0.278;2023-06-14T07:57:58;3.97;;;1.73;;
56718;SDS011;42597;40.636;0.278;2023-06-14T08:00:24;3.25;;;2.38;;
56718;SDS011;42597;40.636;0.278;2023-06-14T08:02:49;5.03;;;1.67;;
56718;SDS011;42597;40.636;0.278;2023-06-14T08:05:17;3.30;;;1.45;;
56718;SDS011;42597;40.636;0.278;2023-06-14T08:07:42;3.25;;;1.73;;
56718;SDS011;42597;40.636;0.278;2023-06-14T08:10:08;3.92;;;2.15;;
56718;SDS011;42597;40.636;0.278;2023-06-14T08:12:33;2.22;;;1.20;;
56718;SDS011;42597;40.636;0.278;2023-06-14T08:14:59;3.85;;;1.85;;
56718;SDS011;42597;40.636;0.278;2023-06-14T08:17:25;5.82;;;1.95;;
56718;SDS011;42597;40.636;0.278;2023-06-14T08:19:51;2.45;;;1.63;;
56718;SDS011;42597;40.636;0.278;2023-06-14T08:22:19;2.50;;;1.40;;
56718;SDS011;42597;40.636;0.278;2023-06-14T08:24:46;4.00;;;2.33;;
56718;SDS011;42597;40.636;0.278;2023-06-14T08:27:12;3.20;;;1.70;;
56718;SDS011;42597;40.636;0.278;2023-06-14T08:29:38;3.47;;;1.95;;
56718;SDS011;42597;40.636;0.278;2023-06-14T08:32:05;3.80;;;1.90;;
56718;SDS011;42597;40.636;0.278;2023-06-14T08:34:31;4.25;;;2.05;;
56718;SDS011;42597;40.636;0.278;2023-06-14T08:36:57;3.85;;;1.77;;
56718;SDS011;42597;40.636;0.278;2023-06-14T08:39:23;3.40;;;1.75;;
56718;SDS011;42597;40.636;0.278;2023-06-14T08:41:48;9.55;;;2.05;;
56718;SDS011;42597;40.636;0.278;2023-06-14T08:46:43;3.47;;;1.75;;
56718;SDS011;42597;40.636;0.278;2023-06-14T08:49:11;3.63;;;2.00;;
56718;SDS011;42597;40.636;0.278;2023-06-14T08:51:37;6.72;;;2.05;;
56718;SDS011;42597;40.636;0.278;2023-06-14T08:54:05;5.68;;;1.73;;
56718;SDS011;42597;40.636;0.278;2023-06-14T08:56:32;3.60;;;1.70;;
56718;SDS011;42597;40.636;0.278;2023-06-14T08:58:59;5.82;;;2.20;;
56718;SDS011;42597;40.636;0.278;2023-06-14T09:01:30;1.95;;;1.17;;
56718;SDS011;42597;40.636;0.278;2023-06-14T09:03:59;2.25;;;1.50;;
56718;SDS011;42597;40.636;0.278;2023-06-14T09:06:25;3.17;;;1.60;;
56718;SDS011;42597;40.636;0.278;2023-06-14T09:08:53;3.97;;;1.80;;
56718;SDS011;42597;40.636;0.278;2023-06-14T09:11:21;3.45;;;1.77;;
56718;SDS011;42597;40.636;0.278;2023-06-14T09:13:49;2.28;;;1.50;;
56718;SDS011;42597;40.636;0.278;2023-06-14T09:16:15;4.00;;;1.77;;
56718;SDS011;42597;40.636;0.278;2023-06-14T09:18:43;4.00;;;1.90;;
56718;SDS011;42597;40.636;0.278;2023-06-14T09:21:15;2.55;;;1.70;;
56718;SDS011;42597;40.636;0.278;2023-06-14T09:23:42;3.67;;;2.20;;
56718;SDS011;42597;40.636;0.278;2023-06-14T09:26:16;3.17;;;1.77;;
56718;SDS011;42597;40.636;0.278;2023-06-14T09:28:44;3.40;;;1.77;;
56718;SDS011;42597;40.636;0.278;2023-06-14T09:31:12;3.33;;;1.98;;
56718;SDS011;42597;40.636;0.278;2023-06-14T09:33:41;5.13;;;1.98;;
56718;SDS011;42597;40.636;0.278;2023-06-14T09:36:13;3.00;;;1.73;;
56718;SDS011;42597;40.636;0.278;2023-06-14T09:38:41;3.95;;;2.30;;
56718;SDS011;42597;40.636;0.278;2023-06-14T09:41:07;3.88;;;2.08;;
56718;SDS011;42597;40.636;0.278;2023-06-14T09:43:33;3.55;;;1.90;;
56718;SDS011;42597;40.636;0.278;2023-06-14T09:46:02;5.03;;;2.25;;
56718;SDS011;42597;40.636;0.278;2023-06-14T09:48:29;2.60;;;1.48;;
56718;SDS011;42597;40.636;0.278;2023-06-14T09:50:55;3.58;;;2.08;;
56718;SDS011;42597;40.636;0.278;2023-06-14T09:53:22;3.60;;;1.90;;
56718;SDS011;42597;40.636;0.278;2023-06-14T09:55:50;9.55;;;2.10;;
56718;SDS011;42597;40.636;0.278;2023-06-14T09:58:19;3.53;;;1.70;;
56718;SDS011;42597;40.636;0.278;2023-06-14T10:00:46;3.58;;;1.98;;
56718;SDS011;42597;40.636;0.278;2023-06-14T10:03:21;4.45;;;2.28;;
56718;SDS011;42597;40.636;0.278;2023-06-14T10:05:50;3.58;;;2.22;;
56718;SDS011;42597;40.636;0.278;2023-06-14T10:08:18;5.43;;;2.25;;
56718;SDS011;42597;40.636;0.278;2023-06-14T10:10:49;3.80;;;1.95;;
56718;SDS011;42597;40.636;0.278;2023-06-14T10:13:15;4.38;;;2.70;;
56718;SDS011;42597;40.636;0.278;2023-06-14T10:18:50;5.07;;;2.05;;
56718;SDS011;42597;40.636;0.278;2023-06-14T10:21:41;4.05;;;2.20;;
56718;SDS011;42597;40.636;0.278;2023-06-14T10:24:12;5.78;;;2.85;;
56718;SDS011;42597;40.636;0.278;2023-06-14T10:27:02;4.45;;;2.25;;
56718;SDS011;42597;40.636;0.278;2023-06-14T10:29:27;4.25;;;2.58;;
56718;SDS011;42597;40.636;0.278;2023-06-14T10:31:57;4.75;;;2.20;;
56718;SDS011;42597;40.636;0.278;2023-06-14T10:34:25;3.63;;;1.90;;
56718;SDS011;42597;40.636;0.278;2023-06-14T10:39:26;4.43;;;2.40;;
56718;SDS011;42597;40.636;0.278;2023-06-14T10:41:53;5.80;;;2.70;;
56718;SDS011;42597;40.636;0.278;2023-06-14T10:46:48;4.93;;;2.63;;
56718;SDS011;42597;40.636;0.278;2023-06-14T10:49:37;4.50;;;2.28;;
56718;SDS011;42597;40.636;0.278;2023-06-14T10:52:13;5.68;;;2.35;;
56718;SDS011;42597;40.636;0.278;2023-06-14T10:54:56;12.80;;;3.50;;
56718;SDS011;42597;40.636;0.278;2023-06-14T10:57:39;5.95;;;2.80;;
56718;SDS011;42597;40.636;0.278;2023-06-14T11:00:22;3.60;;;2.38;;
56718;SDS011;42597;40.636;0.278;2023-06-14T11:05:53;4.82;;;2.72;;
56718;SDS011;42597;40.636;0.278;2023-06-14T11:08:27;4.75;;;2.92;;
56718;SDS011;42597;40.636;0.278;2023-06-14T11:11:11;4.57;;;2.50;;
56718;SDS011;42597;40.636;0.278;2023-06-14T11:13:38;4.95;;;2.58;;
56718;SDS011;42597;40.636;0.278;2023-06-14T11:16:11;5.63;;;2.88;;
56718;SDS011;42597;40.636;0.278;2023-06-14T11:18:41;7.90;;;2.63;;
56718;SDS011;42597;40.636;0.278;2023-06-14T11:21:07;4.45;;;2.05;;
56718;SDS011;42597;40.636;0.278;2023-06-14T11:23:36;5.22;;;2.65;;
56718;SDS011;42597;40.636;0.278;2023-06-14T11:26:01;5.57;;;2.75;;
56718;SDS011;42597;40.636;0.278;2023-06-14T11:28:39;4.40;;;2.63;;
56718;SDS011;42597;40.636;0.278;2023-06-14T11:31:05;5.55;;;2.22;;
56718;SDS011;42597;40.636;0.278;2023-06-14T11:33:32;4.72;;;2.90;;
56718;SDS011;42597;40.636;0.278;2023-06-14T11:35:58;6.93;;;2.75;;
56718;SDS011;42597;40.636;0.278;2023-06-14T11:38:24;6.22;;;3.00;;
56718;SDS011;42597;40.636;0.278;2023-06-14T11:40:51;5.68;;;2.88;;
56718;SDS011;42597;40.636;0.278;2023-06-14T11:43:16;3.97;;;2.17;;
56718;SDS011;42597;40.636;0.278;2023-06-14T11:45:42;6.25;;;2.95;;
56718;SDS011;42597;40.636;0.278;2023-06-14T11:48:08;4.82;;;2.47;;
56718;SDS011;42597;40.636;0.278;2023-06-14T11:50:33;5.57;;;2.65;;
56718;SDS011;42597;40.636;0.278;2023-06-14T11:53:03;5.53;;;2.60;;
56718;SDS011;42597;40.636;0.278;2023-06-14T11:58:01;6.63;;;3.00;;
56718;SDS011;42597;40.636;0.278;2023-06-14T12:00:26;4.80;;;2.88;;
56718;SDS011;42597;40.636;0.278;2023-06-14T12:02:56;7.05;;;3.22;;
56718;SDS011;42597;40.636;0.278;2023-06-14T12:08:32;4.30;;;2.80;;
56718;SDS011;42597;40.636;0.278;2023-06-14T12:13:40;4.30;;;2.65;;
56718;SDS011;42597;40.636;0.278;2023-06-14T12:16:07;4.82;;;2.95;;
56718;SDS011;42597;40.636;0.278;2023-06-14T12:18:36;3.83;;;2.47;;
56718;SDS011;42597;40.636;0.278;2023-06-14T12:21:07;4.47;;;2.80;;
56718;SDS011;42597;40.636;0.278;2023-06-14T12:23:43;4.65;;;2.63;;
56718;SDS011;42597;40.636;0.278;2023-06-14T12:26:11;4.72;;;2.70;;
56718;SDS011;42597;40.636;0.278;2023-06-14T12:28:39;5.28;;;2.83;;
56718;SDS011;42597;40.636;0.278;2023-06-14T12:31:07;6.22;;;2.67;;
56718;SDS011;42597;40.636;0.278;2023-06-14T12:33:32;4.68;;;2.42;;
56718;SDS011;42597;40.636;0.278;2023-06-14T12:35:59;6.15;;;2.83;;
56718;SDS011;42597;40.636;0.278;2023-06-14T12:38:25;5.40;;;2.75;;
56718;SDS011;42597;40.636;0.278;2023-06-14T12:40:50;4.05;;;2.30;;
56718;SDS011;42597;40.636;0.278;2023-06-14T12:43:16;4.82;;;2.45;;
56718;SDS011;42597;40.636;0.278;2023-06-14T12:45:41;4.05;;;2.28;;
56718;SDS011;42597;40.636;0.278;2023-06-14T12:48:07;7.30;;;3.55;;
56718;SDS011;42597;40.636;0.278;2023-06-14T12:50:34;6.60;;;3.28;;
56718;SDS011;42597;40.636;0.278;2023-06-14T12:52:59;6.35;;;3.35;;
56718;SDS011;42597;40.636;0.278;2023-06-14T12:55:25;6.90;;;3.90;;
56718;SDS011;42597;40.636;0.278;2023-06-14T12:57:51;5.18;;;2.45;;
56718;SDS011;42597;40.636;0.278;2023-06-14T13:00:16;5.13;;;2.65;;
56718;SDS011;42597;40.636;0.278;2023-06-14T13:02:43;4.90;;;2.85;;
56718;SDS011;42597;40.636;0.278;2023-06-14T13:05:09;4.38;;;2.65;;
56718;SDS011;42597;40.636;0.278;2023-06-14T13:07:34;7.10;;;2.92;;
56718;SDS011;42597;40.636;0.278;2023-06-14T13:10:00;8.50;;;3.08;;
56718;SDS011;42597;40.636;0.278;2023-06-14T13:12:25;4.82;;;3.10;;
56718;SDS011;42597;40.636;0.278;2023-06-14T13:14:51;4.78;;;3.25;;
56718;SDS011;42597;40.636;0.278;2023-06-14T13:17:17;8.88;;;2.70;;
56718;SDS011;42597;40.636;0.278;2023-06-14T13:19:42;9.82;;;3.08;;
56718;SDS011;42597;40.636;0.278;2023-06-14T13:22:08;7.57;;;3.08;;
56718;SDS011;42597;40.636;0.278;2023-06-14T13:24:33;5.85;;;2.60;;
56718;SDS011;42597;40.636;0.278;2023-06-14T13:26:59;5.05;;;2.65;;
56718;SDS011;42597;40.636;0.278;2023-06-14T13:29:25;4.97;;;2.83;;
56718;SDS011;42597;40.636;0.278;2023-06-14T13:31:51;5.40;;;2.85;;
56718;SDS011;42597;40.636;0.278;2023-06-14T13:34:17;4.60;;;3.13;;
56718;SDS011;42597;40.636;0.278;2023-06-14T13:36:43;7.75;;;3.00;;
56718;SDS011;42597;40.636;0.278;2023-06-14T13:39:09;15.57;;;2.88;;
56718;SDS011;42597;40.636;0.278;2023-06-14T13:41:36;4.85;;;3.20;;
56718;SDS011;42597;40.636;0.278;2023-06-14T13:44:02;7.18;;;3.78;;
56718;SDS011;42597;40.636;0.278;2023-06-14T13:46:30;5.93;;;3.30;;
56718;SDS011;42597;40.636;0.278;2023-06-14T13:48:56;5.40;;;3.10;;
56718;SDS011;42597;40.636;0.278;2023-06-14T13:51:23;5.35;;;2.70;;
56718;SDS011;42597;40.636;0.278;2023-06-14T13:53:48;5.03;;;2.78;;
56718;SDS011;42597;40.636;0.278;2023-06-14T13:56:15;5.22;;;3.17;;
56718;SDS011;42597;40.636;0.278;2023-06-14T13:58:41;5.25;;;3.13;;
56718;SDS011;42597;40.636;0.278;2023-06-14T14:01:07;5.10;;;3.25;;
56718;SDS011;42597;40.636;0.278;2023-06-14T14:03:33;7.55;;;3.45;;
56718;SDS011;42597;40.636;0.278;2023-06-14T14:06:00;6.18;;;2.88;;
56718;SDS011;42597;40.636;0.278;2023-06-14T14:08:27;13.63;;;4.28;;
56718;SDS011;42597;40.636;0.278;2023-06-14T14:10:53;8.02;;;4.07;;
56718;SDS011;42597;40.636;0.278;2023-06-14T14:13:18;4.55;;;2.90;;
56718;SDS011;42597;40.636;0.278;2023-06-14T14:15:44;5.07;;;3.05;;
56718;SDS011;42597;40.636;0.278;2023-06-14T14:18:09;4.55;;;2.95;;
56718;SDS011;42597;40.636;0.278;2023-06-14T14:20:35;5.70;;;3.08;;
56718;SDS011;42597;40.636;0.278;2023-06-14T14:23:01;4.78;;;2.95;;
56718;SDS011;42597;40.636;0.278;2023-06-14T14:25:27;6.78;;;3.13;;
56718;SDS011;42597;40.636;0.278;2023-06-14T14:27:53;5.35;;;3.33;;
56718;SDS011;42597;40.636;0.278;2023-06-14T14:30:18;3.92;;;2.28;;
56718;SDS011;42597;40.636;0.278;2023-06-14T14:32:48;4.90;;;2.83;;
56718;SDS011;42597;40.636;0.278;2023-06-14T14:35:16;4.22;;;2.47;;
56718;SDS011;42597;40.636;0.278;2023-06-14T14:37:41;6.30;;;3.08;;
56718;SDS011;42597;40.636;0.278;2023-06-14T14:40:07;7.47;;;2.90;;
56718;SDS011;42597;40.636;0.278;2023-06-14T14:42:34;6.40;;;3.15;;
56718;SDS011;42597;40.636;0.278;2023-06-14T14:45:00;5.45;;;3.65;;
56718;SDS011;42597;40.636;0.278;2023-06-14T14:47:26;7.45;;;2.95;;
56718;SDS011;42597;40.636;0.278;2023-06-14T14:49:51;4.25;;;2.83;;
56718;SDS011;42597;40.636;0.278;2023-06-14T14:52:17;6.55;;;3.65;;
56718;SDS011;42597;40.636;0.278;2023-06-14T14:54:42;9.05;;;3.90;;
56718;SDS011;42597;40.636;0.278;2023-06-14T14:57:08;6.32;;;3.58;;
56718;SDS011;42597;40.636;0.278;2023-06-14T14:59:33;8.43;;;3.70;;
56718;SDS011;42597;40.636;0.278;2023-06-14T15:01:59;7.10;;;3.85;;
56718;SDS011;42597;40.636;0.278;2023-06-14T15:04:25;4.90;;;2.85;;
56718;SDS011;42597;40.636;0.278;2023-06-14T15:06:50;6.25;;;3.90;;
56718;SDS011;42597;40.636;0.278;2023-06-14T15:09:16;4.28;;;2.75;;
56718;SDS011;42597;40.636;0.278;2023-06-14T15:11:41;5.78;;;3.50;;
56718;SDS011;42597;40.636;0.278;2023-06-14T15:14:09;7.80;;;3.40;;
56718;SDS011;42597;40.636;0.278;2023-06-14T15:16:35;7.13;;;3.30;;
56718;SDS011;42597;40.636;0.278;2023-06-14T15:19:00;7.05;;;2.95;;
56718;SDS011;42597;40.636;0.278;2023-06-14T15:21:26;6.55;;;3.30;;